Terminal Aerodrome Forecast
Issued by NWS

Home | Current Version | Previous Version | Text Only | Print | Product List | Glossary On
Versions: 1 2 3 4 5 6 7 8 9 10 11 12 13
000
FTUS45 KSLC 241736
TAFSGU
TAF
KSGU 241736Z 2418/2518 06010KT P6SM SKC
     FM242100 34010KT P6SM SKC
     FM250400 03010KT P6SM FEW200
     FM251500 16008KT P6SM FEW180=

USA.gov is the U.S. government's official web portal to all federal, state and local government web resources and services.